createdAt,value
2023-05-01T00:02:59.762Z,98507.38
2023-05-01T00:06:03.528Z,98504.19
2023-05-01T00:09:07.077Z,98502.09
2023-05-01T00:12:11.859Z,98503.91
2023-05-01T00:15:14.527Z,98498.72
2023-05-01T00:18:17.347Z,98489.09
2023-05-01T00:21:19.935Z,98483.50
2023-05-01T00:24:22.556Z,98484.66
2023-05-01T00:27:27.298Z,98479.66
2023-05-01T00:30:30.200Z,98474.06
2023-05-01T00:33:32.734Z,98477.28
2023-05-01T00:36:35.300Z,98473.09
2023-05-01T00:39:37.774Z,98472.00
2023-05-01T00:42:41.645Z,98469.75
2023-05-01T00:45:45.487Z,98465.72
2023-05-01T00:48:48.129Z,98467.50
2023-05-01T00:51:54.188Z,98462.50
2023-05-01T00:54:57.065Z,98453.84
2023-05-01T00:58:01.803Z,98456.56
2023-05-01T01:01:05.125Z,98460.28
2023-05-01T01:04:08.123Z,98449.53
2023-05-01T01:07:13.087Z,98451.41
2023-05-01T01:10:20.556Z,98449.34
2023-05-01T01:13:29.587Z,98442.59
2023-05-01T01:16:34.875Z,98437.94
2023-05-01T01:19:56.924Z,98434.28
2023-05-01T01:23:11.746Z,98426.22
2023-05-01T01:26:40.477Z,98426.53
2023-05-01T01:30:06.756Z,98428.13
2023-05-01T01:33:26.628Z,98423.69
2023-05-01T01:36:48.208Z,98424.91
2023-05-01T01:39:54.612Z,98420.25
2023-05-01T01:43:00.789Z,98424.28
2023-05-01T01:46:04.509Z,98420.25
2023-05-01T01:49:09.057Z,98421.19
2023-05-01T01:52:15.145Z,98427.47
2023-05-01T01:55:18.880Z,98416.69
2023-05-01T01:58:26.052Z,98420.06
2023-05-01T02:01:30.527Z,98412.69
2023-05-01T02:04:33.854Z,98410.28
2023-05-01T02:07:38.947Z,98409.94
2023-05-01T02:10:41.705Z,98410.38
2023-05-01T02:13:44.972Z,98403.00
2023-05-01T02:16:47.649Z,98405.44
2023-05-01T02:19:53.108Z,98398.81
2023-05-01T02:22:57.205Z,98396.09
2023-05-01T02:26:01.771Z,98397.81
2023-05-01T02:29:04.950Z,98398.94
2023-05-01T02:32:07.493Z,98389.50
2023-05-01T02:35:10.490Z,98392.06
2023-05-01T02:38:15.007Z,98389.78
2023-05-01T02:41:17.982Z,98384.78
2023-05-01T02:44:22.300Z,98382.19
2023-05-01T02:47:27.339Z,98375.47
2023-05-01T02:50:30.597Z,98372.25
2023-05-01T02:53:34.658Z,98369.53
2023-05-01T02:56:37.440Z,98374.66
2023-05-01T02:59:40.305Z,98371.91
2023-05-01T03:02:42.932Z,98368.88
2023-05-01T03:05:45.587Z,98367.41
2023-05-01T03:08:49.650Z,98369.00
2023-05-01T03:11:52.261Z,98366.41
2023-05-01T03:14:54.771Z,98376.22
2023-05-01T03:17:57.506Z,98372.53
2023-05-01T03:21:00.314Z,98373.94
2023-05-01T03:24:04.415Z,98361.22
2023-05-01T03:27:07.584Z,98372.16
2023-05-01T03:30:11.161Z,98369.88
2023-05-01T03:33:13.613Z,98362.81
2023-05-01T03:36:16.400Z,98365.91
2023-05-01T03:39:20.357Z,98356.72
2023-05-01T03:42:22.911Z,98352.16
2023-05-01T03:45:25.418Z,98350.22
2023-05-01T03:48:27.915Z,98345.59
2023-05-01T03:51:30.480Z,98343.31
2023-05-01T03:54:34.328Z,98341.22
2023-05-01T03:57:37.076Z,98340.59
2023-05-01T04:00:39.654Z,98341.53
2023-05-01T04:03:42.278Z,98343.94
2023-05-01T04:06:45.063Z,98339.72
2023-05-01T04:09:49.152Z,98340.31
2023-05-01T04:12:51.917Z,98348.53
2023-05-01T04:15:55.815Z,98337.25
2023-05-01T04:18:58.425Z,98336.94
2023-05-01T04:22:01.413Z,98335.94
2023-05-01T04:25:05.717Z,98347.38
2023-05-01T04:28:08.251Z,98344.09
2023-05-01T04:31:10.973Z,98339.94
2023-05-01T04:34:13.490Z,98343.97
2023-05-01T04:37:17.875Z,98344.06
2023-05-01T04:40:21.986Z,98348.19
2023-05-01T04:43:24.616Z,98345.81
2023-05-01T04:46:27.111Z,98342.72
2023-05-01T04:49:29.744Z,98342.72
2023-05-01T04:52:32.263Z,98334.22
2023-05-01T04:55:36.410Z,98343.00
2023-05-01T04:58:38.930Z,98342.31
2023-05-01T05:01:41.498Z,98348.41
2023-05-01T05:04:44.060Z,98344.91
2023-05-01T05:07:46.629Z,98351.41
2023-05-01T05:10:50.484Z,98349.28
2023-05-01T05:13:52.930Z,98357.06
2023-05-01T05:16:55.475Z,98352.28
2023-05-01T05:19:58.252Z,98342.84
2023-05-01T05:23:00.901Z,98352.19
2023-05-01T05:26:05.532Z,98347.16
2023-05-01T05:29:08.529Z,98341.34
2023-05-01T05:32:11.514Z,98341.81
2023-05-01T05:35:14.201Z,98345.34
2023-05-01T05:38:17.055Z,98343.84
2023-05-01T05:41:21.553Z,98340.44
2023-05-01T05:44:24.527Z,98338.81
2023-05-01T05:47:27.275Z,98348.53
2023-05-01T05:50:30.271Z,98347.28
2023-05-01T05:53:32.864Z,98348.16
2023-05-01T05:56:36.722Z,98353.28
2023-05-01T05:59:39.278Z,98351.69
2023-05-01T06:02:41.969Z,98358.75
2023-05-01T06:05:44.885Z,98359.03
2023-05-01T06:08:47.416Z,98356.63
2023-05-01T06:11:51.321Z,98347.97
2023-05-01T06:14:53.947Z,98357.00
2023-05-01T06:17:57.572Z,98355.91
2023-05-01T06:21:00.092Z,98354.19
2023-05-01T06:24:02.792Z,98355.09
2023-05-01T06:27:06.858Z,98359.09
2023-05-01T06:30:10.749Z,98351.72
2023-05-01T06:33:13.283Z,98349.31
2023-05-01T06:36:15.856Z,98357.09
2023-05-01T06:39:18.369Z,98358.91
2023-05-01T06:42:22.215Z,98367.72
2023-05-01T06:45:24.719Z,98362.34
2023-05-01T06:48:27.229Z,98378.75
2023-05-01T06:51:30.346Z,98370.31
2023-05-01T06:54:32.920Z,98379.78
2023-05-01T06:57:37.105Z,98373.78
2023-05-01T07:00:39.992Z,98376.34
2023-05-01T07:03:42.690Z,98372.91
2023-05-01T07:06:45.537Z,98377.53
2023-05-01T07:09:48.191Z,98382.94
2023-05-01T07:12:52.055Z,98374.47
2023-05-01T07:15:54.926Z,98381.44
2023-05-01T07:18:57.598Z,98386.13
2023-05-01T07:22:00.122Z,98385.78
2023-05-01T07:25:03.513Z,98383.28
2023-05-01T07:28:08.150Z,98377.00
2023-05-01T07:31:10.979Z,98379.72
2023-05-01T07:34:13.712Z,98376.22
2023-05-01T07:37:16.409Z,98377.75
2023-05-01T07:40:19.174Z,98372.69
2023-05-01T07:43:23.312Z,98368.78
2023-05-01T07:46:26.031Z,98366.75
2023-05-01T07:49:28.807Z,98378.09
2023-05-01T07:52:31.441Z,98374.25
2023-05-01T07:55:34.019Z,98373.00
2023-05-01T07:58:38.390Z,98364.75
2023-05-01T08:01:41.249Z,98369.78
2023-05-01T08:04:43.984Z,98362.66
2023-05-01T08:07:46.583Z,98363.44
2023-05-01T08:10:49.404Z,98368.25
2023-05-01T08:13:53.426Z,98366.34
2023-05-01T08:16:55.945Z,98364.47
2023-05-01T08:19:58.837Z,98353.75
2023-05-01T08:23:01.614Z,98356.84
2023-05-01T08:26:04.368Z,98353.41
2023-05-01T08:29:08.331Z,98352.88
2023-05-01T08:32:10.975Z,98350.13
2023-05-01T08:35:13.650Z,98358.78
2023-05-01T08:38:16.938Z,98344.69
2023-05-01T08:41:22.112Z,98345.47
2023-05-01T08:44:26.840Z,98351.78
2023-05-01T08:47:30.617Z,98344.81
2023-05-01T08:50:35.805Z,98352.25
2023-05-01T08:53:41.377Z,98346.59
2023-05-01T08:56:44.716Z,98345.47
2023-05-01T08:59:50.949Z,98345.38
2023-05-01T09:02:53.737Z,98345.44
2023-05-01T09:05:56.686Z,98347.38
2023-05-01T09:08:59.476Z,98350.94
2023-05-01T09:12:08.051Z,98349.00
2023-05-01T09:15:12.796Z,98357.34
2023-05-01T09:18:15.489Z,98347.38
2023-05-01T09:21:18.110Z,98348.59
2023-05-01T09:24:20.747Z,98348.94
2023-05-01T09:27:24.103Z,98351.72
2023-05-01T09:30:36.428Z,98351.00
2023-05-01T09:33:53.960Z,98354.13
2023-05-01T09:36:56.536Z,98354.25
2023-05-01T09:40:07.803Z,98358.78
2023-05-01T09:43:11.778Z,98358.00
2023-05-01T09:46:17.130Z,98350.19
2023-05-01T09:49:19.686Z,98342.56
2023-05-01T09:52:22.364Z,98341.63
2023-05-01T09:55:25.931Z,98347.56
2023-05-01T09:58:29.060Z,98345.06
2023-05-01T10:01:43.395Z,98347.00
2023-05-01T10:04:46.361Z,98345.13
2023-05-01T10:07:59.582Z,98344.13
2023-05-01T10:11:05.171Z,98350.09
2023-05-01T10:14:09.616Z,98350.75
2023-05-01T10:17:20.033Z,98348.16
2023-05-01T10:20:23.024Z,98348.91
2023-05-01T10:23:26.309Z,98343.19
2023-05-01T10:26:28.886Z,98350.78
2023-05-01T10:29:32.978Z,98349.13
2023-05-01T10:32:38.151Z,98348.28
2023-05-01T10:35:42.047Z,98346.31
2023-05-01T10:38:48.252Z,98350.84
2023-05-01T10:42:10.923Z,98344.91
2023-05-01T10:45:30.208Z,98341.03
2023-05-01T10:48:56.988Z,98347.91
2023-05-01T10:52:00.925Z,98349.56
2023-05-01T10:55:33.408Z,98337.50
2023-05-01T10:58:58.980Z,98343.50
2023-05-01T11:02:01.748Z,98344.13
2023-05-01T11:05:07.030Z,98345.03
2023-05-01T11:08:30.268Z,98337.41
2023-05-01T11:11:51.313Z,98329.66
2023-05-01T11:15:05.574Z,98328.84
2023-05-01T11:18:08.972Z,98325.91
2023-05-01T11:21:13.084Z,98319.91
2023-05-01T11:24:17.498Z,98326.91
2023-05-01T11:27:20.202Z,98325.63
2023-05-01T11:30:23.111Z,98322.31
2023-05-01T11:33:26.317Z,98330.75
2023-05-01T11:36:32.033Z,98313.97
2023-05-01T11:39:34.623Z,98322.78
2023-05-01T11:42:37.200Z,98324.44
2023-05-01T11:45:39.848Z,98317.66
2023-05-01T11:48:42.414Z,98312.44
2023-05-01T11:51:46.579Z,98318.34
2023-05-01T11:54:49.434Z,98318.63
2023-05-01T11:57:53.096Z,98316.53
2023-05-01T12:00:55.709Z,98315.84
2023-05-01T12:03:58.415Z,98320.66
2023-05-01T12:07:03.663Z,98316.91
2023-05-01T12:10:07.164Z,98306.47
2023-05-01T12:13:11.638Z,98303.88
2023-05-01T12:16:14.397Z,98317.94
2023-05-01T12:19:17.603Z,98309.41
2023-05-01T12:22:21.775Z,98306.34
2023-05-01T12:25:31.992Z,98302.47
2023-05-01T12:28:34.533Z,98299.81
2023-05-01T12:31:37.602Z,98306.84
2023-05-01T12:34:40.199Z,98304.81
2023-05-01T12:37:44.458Z,98308.03
2023-05-01T12:40:57.754Z,98301.97
2023-05-01T12:44:00.188Z,98308.31
2023-05-01T12:47:05.501Z,98309.25
2023-05-01T12:50:09.964Z,98304.53
2023-05-01T12:53:13.985Z,98303.75
2023-05-01T12:56:24.965Z,98301.66
2023-05-01T12:59:28.778Z,98305.22
2023-05-01T13:02:32.406Z,98295.03
2023-05-01T13:05:35.132Z,98297.09
2023-05-01T13:08:40.493Z,98286.09
2023-05-01T13:11:43.258Z,98287.94
2023-05-01T13:14:46.041Z,98286.31
2023-05-01T13:17:48.900Z,98282.59
2023-05-01T13:20:52.103Z,98286.13
2023-05-01T13:23:56.634Z,98286.63
2023-05-01T13:27:02.388Z,98288.28
2023-05-01T13:30:08.118Z,98289.94
2023-05-01T13:33:11.982Z,98280.75
2023-05-01T13:36:25.337Z,98286.59
2023-05-01T13:39:30.877Z,98293.22
2023-05-01T13:42:33.655Z,98292.09
2023-05-01T13:45:36.403Z,98299.25
2023-05-01T13:48:40.321Z,98300.13
2023-05-01T13:51:45.127Z,98305.09
2023-05-01T13:54:49.248Z,98299.88
2023-05-01T13:57:51.809Z,98298.75
2023-05-01T14:00:54.741Z,98309.81
2023-05-01T14:03:58.082Z,98307.06
2023-05-01T14:07:01.274Z,98302.22
2023-05-01T14:10:11.032Z,98300.28
2023-05-01T14:13:14.034Z,98300.09
2023-05-01T14:16:23.989Z,98298.25
2023-05-01T14:19:27.300Z,98283.91
2023-05-01T14:22:30.464Z,98286.25
2023-05-01T14:25:35.385Z,98276.75
2023-05-01T14:28:42.601Z,98277.31
2023-05-01T14:31:45.150Z,98286.97
2023-05-01T14:34:47.745Z,98296.28
2023-05-01T14:37:50.384Z,98297.53
2023-05-01T14:40:54.247Z,98297.63
2023-05-01T14:43:56.943Z,98295.75
2023-05-01T14:47:00.317Z,98286.81
2023-05-01T14:50:03.469Z,98296.72
2023-05-01T14:53:06.519Z,98304.41
2023-05-01T14:56:10.338Z,98296.31
2023-05-01T14:59:12.970Z,98296.78
2023-05-01T15:02:15.986Z,98299.81
2023-05-01T15:05:18.826Z,98300.81
2023-05-01T15:08:21.788Z,98306.16
2023-05-01T15:11:26.189Z,98312.97
2023-05-01T15:14:28.677Z,98310.13
2023-05-01T15:17:32.522Z,98315.91
2023-05-01T15:20:35.318Z,98317.38
2023-05-01T15:23:38.076Z,98310.25
2023-05-01T15:26:42.650Z,98312.91
2023-05-01T15:29:45.434Z,98326.22
2023-05-01T15:32:48.118Z,98323.09
2023-05-01T15:35:52.613Z,98329.31
2023-05-01T15:38:55.174Z,98310.75
2023-05-01T15:41:59.072Z,98316.91
2023-05-01T15:45:02.984Z,98305.56
2023-05-01T15:48:06.282Z,98302.41
2023-05-01T15:51:08.956Z,98309.75
2023-05-01T15:54:11.487Z,98309.00
2023-05-01T15:57:17.820Z,98310.56
2023-05-01T16:00:21.804Z,98303.09
2023-05-01T16:03:24.531Z,98317.00
2023-05-01T16:06:28.173Z,98311.34
2023-05-01T16:09:31.980Z,98311.88
2023-05-01T16:12:36.035Z,98322.47
2023-05-01T16:15:39.068Z,98325.47
2023-05-01T16:18:42.546Z,98328.94
2023-05-01T16:21:45.333Z,98329.41
2023-05-01T16:24:47.910Z,98333.84
2023-05-01T16:27:51.774Z,98340.63
2023-05-01T16:30:54.362Z,98337.41
2023-05-01T16:33:57.121Z,98340.53
2023-05-01T16:37:00.761Z,98355.56
2023-05-01T16:40:03.421Z,98362.28
2023-05-01T16:43:07.475Z,98366.75
2023-05-01T16:46:10.391Z,98362.81
2023-05-01T16:49:14.297Z,98363.63
2023-05-01T16:52:17.629Z,98363.91
2023-05-01T16:55:20.413Z,98370.28
2023-05-01T16:58:24.304Z,98361.09
2023-05-01T17:01:27.729Z,98371.72
2023-05-01T17:04:30.471Z,98372.31
2023-05-01T17:07:33.351Z,98365.16
2023-05-01T17:10:38.249Z,98352.75
2023-05-01T17:13:42.162Z,98328.50
2023-05-01T17:16:45.711Z,98345.19
2023-05-01T17:19:49.329Z,98352.00
2023-05-01T17:22:51.935Z,98346.94
2023-05-01T17:25:54.397Z,98357.94
2023-05-01T17:28:58.349Z,98356.41
2023-05-01T17:32:00.998Z,98362.88
2023-05-01T17:35:03.909Z,98362.53
2023-05-01T17:38:06.414Z,98374.03
2023-05-01T17:41:09.008Z,98371.66
2023-05-01T17:44:12.862Z,98379.09
2023-05-01T17:47:15.410Z,98371.84
2023-05-01T17:50:19.270Z,98371.41
2023-05-01T17:53:23.044Z,98379.03
2023-05-01T17:56:25.809Z,98388.53
2023-05-01T17:59:30.668Z,98391.97
2023-05-01T18:02:33.347Z,98386.75
2023-05-01T18:05:36.051Z,98383.41
2023-05-01T18:08:38.528Z,98382.75
2023-05-01T18:11:41.485Z,98393.16
2023-05-01T18:14:45.365Z,98404.84
2023-05-01T18:17:48.020Z,98411.59
2023-05-01T18:20:50.700Z,98415.84
2023-05-01T18:23:53.232Z,98416.44
2023-05-01T18:26:55.758Z,98425.81
2023-05-01T18:30:00.371Z,98429.72
2023-05-01T18:33:03.541Z,98437.53
2023-05-01T18:36:06.404Z,98444.31
2023-05-01T18:39:08.891Z,98434.41
2023-05-01T18:42:11.500Z,98444.84
2023-05-01T18:45:15.436Z,98442.16
2023-05-01T18:48:18.020Z,98447.22
2023-05-01T18:51:20.851Z,98456.75
2023-05-01T18:54:23.927Z,98447.72
2023-05-01T18:57:27.619Z,98452.28
2023-05-01T19:00:31.761Z,98452.22
2023-05-01T19:03:34.300Z,98463.28
2023-05-01T19:06:36.952Z,98465.16
2023-05-01T19:09:39.564Z,98464.00
2023-05-01T19:12:42.314Z,98470.53
2023-05-01T19:15:46.449Z,98469.25
2023-05-01T19:18:49.005Z,98469.13
2023-05-01T19:21:51.651Z,98472.59
2023-05-01T19:24:54.207Z,98472.91
2023-05-01T19:27:57.288Z,98478.88
2023-05-01T19:31:01.284Z,98474.41
2023-05-01T19:34:03.839Z,98478.97
2023-05-01T19:37:06.456Z,98477.50
2023-05-01T19:40:09.999Z,98490.19
2023-05-01T19:43:13.364Z,98495.88
2023-05-01T19:46:17.313Z,98496.47
2023-05-01T19:49:19.995Z,98503.13
2023-05-01T19:52:22.660Z,98508.59
2023-05-01T19:55:25.284Z,98507.56
2023-05-01T19:58:28.231Z,98513.44
2023-05-01T20:01:32.426Z,98516.78
2023-05-01T20:04:35.061Z,98513.25
2023-05-01T20:07:37.967Z,98513.03
2023-05-01T20:10:40.560Z,98521.13
2023-05-01T20:13:43.148Z,98534.97
2023-05-01T20:16:48.973Z,98537.81
2023-05-01T20:19:51.660Z,98547.06
2023-05-01T20:23:10.078Z,98543.88
2023-05-01T20:26:12.627Z,98554.84
2023-05-01T20:29:15.466Z,98550.06
2023-05-01T20:32:19.390Z,98549.00
2023-05-01T20:35:21.973Z,98559.88
2023-05-01T20:38:24.554Z,98561.91
2023-05-01T20:41:27.899Z,98563.28
2023-05-01T20:44:30.424Z,98570.66
2023-05-01T20:47:34.356Z,98571.00
2023-05-01T20:50:37.126Z,98569.13
2023-05-01T20:53:39.737Z,98574.34
2023-05-01T20:56:42.247Z,98577.81
2023-05-01T20:59:47.664Z,98567.94
2023-05-01T21:02:52.943Z,98567.44
2023-05-01T21:05:59.333Z,98578.91
2023-05-01T21:09:04.613Z,98582.06
2023-05-01T21:12:08.982Z,98583.72
2023-05-01T21:15:12.279Z,98581.97
2023-05-01T21:18:20.279Z,98581.81
2023-05-01T21:21:24.781Z,98585.78
2023-05-01T21:24:27.294Z,98585.13
2023-05-01T21:27:29.777Z,98577.25
2023-05-01T21:30:34.247Z,98584.63
2023-05-01T21:33:39.966Z,98587.19
2023-05-01T21:36:44.931Z,98583.19
2023-05-01T21:39:47.424Z,98593.69
2023-05-01T21:42:50.044Z,98596.91
2023-05-01T21:45:52.594Z,98588.13
2023-05-01T21:48:56.471Z,98585.44
2023-05-01T21:52:00.904Z,98590.00
2023-05-01T21:55:04.253Z,98585.19
2023-05-01T21:58:06.895Z,98587.94
2023-05-01T22:01:10.321Z,98583.78
2023-05-01T22:04:18.115Z,98586.06
2023-05-01T22:07:20.652Z,98593.00
2023-05-01T22:10:23.188Z,98591.88
2023-05-01T22:13:31.958Z,98580.94
2023-05-01T22:16:34.795Z,98589.63
2023-05-01T22:19:38.879Z,98597.00
2023-05-01T22:22:42.899Z,98599.28
2023-05-01T22:25:45.596Z,98605.56
2023-05-01T22:28:49.665Z,98602.22
2023-05-01T22:31:52.201Z,98603.69
2023-05-01T22:34:56.365Z,98606.88
2023-05-01T22:37:58.920Z,98611.41
2023-05-01T22:41:01.490Z,98614.34
2023-05-01T22:44:03.960Z,98612.56
2023-05-01T22:47:07.102Z,98613.34
2023-05-01T22:50:11.946Z,98624.75
2023-05-01T22:53:14.448Z,98631.59
2023-05-01T22:56:17.058Z,98632.59
2023-05-01T22:59:19.981Z,98627.00
2023-05-01T23:02:22.769Z,98631.84
2023-05-01T23:05:27.016Z,98635.84
2023-05-01T23:08:29.511Z,98637.13
2023-05-01T23:11:33.241Z,98643.06
2023-05-01T23:14:37.886Z,98651.91
2023-05-01T23:17:40.849Z,98650.16
2023-05-01T23:20:44.910Z,98649.66
2023-05-01T23:23:48.089Z,98654.16
2023-05-01T23:26:50.625Z,98646.91
2023-05-01T23:29:56.462Z,98648.19
2023-05-01T23:32:59.665Z,98653.97
2023-05-01T23:36:03.942Z,98656.06
2023-05-01T23:39:08.498Z,98645.16
2023-05-01T23:42:11.119Z,98650.75
2023-05-01T23:45:13.631Z,98646.75
2023-05-01T23:48:16.235Z,98649.44
2023-05-01T23:51:20.173Z,98641.25
2023-05-01T23:54:22.715Z,98642.22
2023-05-01T23:57:25.422Z,98642.19
